sensor_id;sensor_type;location;lat;lon;timestamp;P1;durP1;ratioP1;P2;durP2;ratioP2
51194;SDS011;37259;49.972;19.850;2023-08-17T00:00:31;12;;;6.2;;
51194;SDS011;37259;49.972;19.850;2023-08-17T00:01:31;12;;;6.2;;
51194;SDS011;37259;49.972;19.850;2023-08-17T00:02:31;12;;;6.2;;
51194;SDS011;37259;49.972;19.850;2023-08-17T00:03:31;12;;;6.2;;
51194;SDS011;37259;49.972;19.850;2023-08-17T00:04:31;12;;;6.2;;
51194;SDS011;37259;49.972;19.850;2023-08-17T00:05:31;12;;;6.2;;
51194;SDS011;37259;49.972;19.850;2023-08-17T00:06:31;12;;;6.2;;
51194;SDS011;37259;49.972;19.850;2023-08-17T00:07:31;12;;;6.2;;
51194;SDS011;37259;49.972;19.850;2023-08-17T00:08:31;12;;;6.2;;
51194;SDS011;37259;49.972;19.850;2023-08-17T00:09:31;12;;;6.2;;
51194;SDS011;37259;49.972;19.850;2023-08-17T00:10:31;12;;;6.2;;
51194;SDS011;37259;49.972;19.850;2023-08-17T00:11:31;12;;;6.2;;
51194;SDS011;37259;49.972;19.850;2023-08-17T00:12:31;12;;;6.2;;
51194;SDS011;37259;49.972;19.850;2023-08-17T00:13:31;12;;;6.2;;
51194;SDS011;37259;49.972;19.850;2023-08-17T00:14:31;12;;;6.2;;
51194;SDS011;37259;49.972;19.850;2023-08-17T00:15:31;12;;;6.2;;
51194;SDS011;37259;49.972;19.850;2023-08-17T00:16:31;12;;;6.2;;
51194;SDS011;37259;49.972;19.850;2023-08-17T00:17:31;12;;;6.2;;
51194;SDS011;37259;49.972;19.850;2023-08-17T00:18:31;12;;;6.2;;
51194;SDS011;37259;49.972;19.850;2023-08-17T00:19:31;12;;;6.2;;
51194;SDS011;37259;49.972;19.850;2023-08-17T00:20:31;12;;;6.2;;
51194;SDS011;37259;49.972;19.850;2023-08-17T00:21:31;12;;;6.2;;
51194;SDS011;37259;49.972;19.850;2023-08-17T00:22:31;12;;;6.2;;
51194;SDS011;37259;49.972;19.850;2023-08-17T00:23:31;8.2;;;6.6;;
51194;SDS011;37259;49.972;19.850;2023-08-17T00:24:31;8.2;;;6.6;;
51194;SDS011;37259;49.972;19.850;2023-08-17T00:25:31;8.2;;;6.6;;
51194;SDS011;37259;49.972;19.850;2023-08-17T00:26:31;8.2;;;6.6;;
51194;SDS011;37259;49.972;19.850;2023-08-17T00:27:31;8.2;;;6.6;;
51194;SDS011;37259;49.972;19.850;2023-08-17T00:28:31;8.2;;;6.6;;
51194;SDS011;37259;49.972;19.850;2023-08-17T00:29:31;8.2;;;6.6;;
51194;SDS011;37259;49.972;19.850;2023-08-17T00:30:31;8.2;;;6.6;;
51194;SDS011;37259;49.972;19.850;2023-08-17T00:31:31;8.2;;;6.6;;
51194;SDS011;37259;49.972;19.850;2023-08-17T00:32:31;8.2;;;6.6;;
51194;SDS011;37259;49.972;19.850;2023-08-17T00:33:31;8.2;;;6.6;;
51194;SDS011;37259;49.972;19.850;2023-08-17T00:34:31;8.2;;;6.6;;
51194;SDS011;37259;49.972;19.850;2023-08-17T00:35:31;8.2;;;6.6;;
51194;SDS011;37259;49.972;19.850;2023-08-17T00:36:31;8.2;;;6.6;;
51194;SDS011;37259;49.972;19.850;2023-08-17T00:37:31;8.2;;;6.6;;
51194;SDS011;37259;49.972;19.850;2023-08-17T00:38:31;8.2;;;6.6;;
51194;SDS011;37259;49.972;19.850;2023-08-17T00:39:31;8.2;;;6.6;;
51194;SDS011;37259;49.972;19.850;2023-08-17T00:40:31;8.2;;;6.6;;
51194;SDS011;37259;49.972;19.850;2023-08-17T00:41:31;8.2;;;6.6;;
51194;SDS011;37259;49.972;19.850;2023-08-17T00:42:31;8.2;;;6.6;;
51194;SDS011;37259;49.972;19.850;2023-08-17T00:43:31;8.2;;;6.6;;
51194;SDS011;37259;49.972;19.850;2023-08-17T00:44:31;8.2;;;6.6;;
51194;SDS011;37259;49.972;19.850;2023-08-17T00:45:31;8.2;;;6.6;;
51194;SDS011;37259;49.972;19.850;2023-08-17T00:46:31;8.2;;;6.6;;
51194;SDS011;37259;49.972;19.850;2023-08-17T00:47:31;8.2;;;6.6;;
51194;SDS011;37259;49.972;19.850;2023-08-17T00:48:31;8.2;;;6.6;;
51194;SDS011;37259;49.972;19.850;2023-08-17T00:49:31;8.2;;;6.6;;
51194;SDS011;37259;49.972;19.850;2023-08-17T00:50:31;8.2;;;6.6;;
51194;SDS011;37259;49.972;19.850;2023-08-17T00:51:31;8.2;;;6.6;;
51194;SDS011;37259;49.972;19.850;2023-08-17T00:52:31;8.2;;;6.6;;
51194;SDS011;37259;49.972;19.850;2023-08-17T00:53:31;8.2;;;6.6;;
51194;SDS011;37259;49.972;19.850;2023-08-17T00:54:31;12;;;8.6;;
51194;SDS011;37259;49.972;19.850;2023-08-17T00:55:31;12;;;8.6;;
51194;SDS011;37259;49.972;19.850;2023-08-17T00:56:31;12;;;8.6;;
51194;SDS011;37259;49.972;19.850;2023-08-17T00:57:31;12;;;8.6;;
51194;SDS011;37259;49.972;19.850;2023-08-17T00:58:31;12;;;8.6;;
51194;SDS011;37259;49.972;19.850;2023-08-17T00:59:31;12;;;8.6;;
51194;SDS011;37259;49.972;19.850;2023-08-17T01:00:31;12;;;8.6;;
51194;SDS011;37259;49.972;19.850;2023-08-17T01:01:31;12;;;8.6;;
51194;SDS011;37259;49.972;19.850;2023-08-17T01:02:31;12;;;8.6;;
51194;SDS011;37259;49.972;19.850;2023-08-17T01:03:31;12;;;8.6;;
51194;SDS011;37259;49.972;19.850;2023-08-17T01:04:31;12;;;8.6;;
51194;SDS011;37259;49.972;19.850;2023-08-17T01:05:31;12;;;8.6;;
51194;SDS011;37259;49.972;19.850;2023-08-17T01:06:31;12;;;8.6;;
51194;SDS011;37259;49.972;19.850;2023-08-17T01:07:31;12;;;8.6;;
51194;SDS011;37259;49.972;19.850;2023-08-17T01:08:31;12;;;8.6;;
51194;SDS011;37259;49.972;19.850;2023-08-17T01:09:31;12;;;8.6;;
51194;SDS011;37259;49.972;19.850;2023-08-17T01:10:34;12;;;8.6;;
51194;SDS011;37259;49.972;19.850;2023-08-17T01:11:32;12;;;8.6;;
51194;SDS011;37259;49.972;19.850;2023-08-17T01:12:32;12;;;8.6;;
51194;SDS011;37259;49.972;19.850;2023-08-17T01:13:32;12;;;8.6;;
51194;SDS011;37259;49.972;19.850;2023-08-17T01:14:33;12;;;8.6;;
51194;SDS011;37259;49.972;19.850;2023-08-17T01:15:31;12;;;8.6;;
51194;SDS011;37259;49.972;19.850;2023-08-17T01:16:33;12;;;8.6;;
51194;SDS011;37259;49.972;19.850;2023-08-17T01:17:33;12;;;8.6;;
51194;SDS011;37259;49.972;19.850;2023-08-17T01:18:31;12;;;8.6;;
51194;SDS011;37259;49.972;19.850;2023-08-17T01:19:31;12;;;8.6;;
51194;SDS011;37259;49.972;19.850;2023-08-17T01:20:31;12;;;8.6;;
51194;SDS011;37259;49.972;19.850;2023-08-17T01:21:35;12;;;8.6;;
51194;SDS011;37259;49.972;19.850;2023-08-17T01:22:31;12;;;8.6;;
51194;SDS011;37259;49.972;19.850;2023-08-17T01:23:31;12;;;8.6;;
51194;SDS011;37259;49.972;19.850;2023-08-17T01:24:31;12.3;;;7.4;;
51194;SDS011;37259;49.972;19.850;2023-08-17T01:25:31;12.3;;;7.4;;
51194;SDS011;37259;49.972;19.850;2023-08-17T01:26:31;12.3;;;7.4;;
51194;SDS011;37259;49.972;19.850;2023-08-17T01:27:33;12.3;;;7.4;;
51194;SDS011;37259;49.972;19.850;2023-08-17T01:28:31;12.3;;;7.4;;
51194;SDS011;37259;49.972;19.850;2023-08-17T01:29:31;12.3;;;7.4;;
51194;SDS011;37259;49.972;19.850;2023-08-17T01:30:33;12.3;;;7.4;;
51194;SDS011;37259;49.972;19.850;2023-08-17T01:31:31;12.3;;;7.4;;
51194;SDS011;37259;49.972;19.850;2023-08-17T01:32:32;12.3;;;7.4;;
51194;SDS011;37259;49.972;19.850;2023-08-17T01:33:38;12.3;;;7.4;;
51194;SDS011;37259;49.972;19.850;2023-08-17T01:34:32;12.3;;;7.4;;
51194;SDS011;37259;49.972;19.850;2023-08-17T01:35:33;12.3;;;7.4;;
51194;SDS011;37259;49.972;19.850;2023-08-17T01:36:32;12.3;;;7.4;;
51194;SDS011;37259;49.972;19.850;2023-08-17T01:37:31;12.3;;;7.4;;
51194;SDS011;37259;49.972;19.850;2023-08-17T01:38:31;12.3;;;7.4;;
51194;SDS011;37259;49.972;19.850;2023-08-17T01:39:35;12.3;;;7.4;;
51194;SDS011;37259;49.972;19.850;2023-08-17T01:40:31;12.3;;;7.4;;
51194;SDS011;37259;49.972;19.850;2023-08-17T01:41:31;12.3;;;7.4;;
51194;SDS011;37259;49.972;19.850;2023-08-17T01:42:31;12.3;;;7.4;;
51194;SDS011;37259;49.972;19.850;2023-08-17T01:43:31;12.3;;;7.4;;
51194;SDS011;37259;49.972;19.850;2023-08-17T01:44:31;12.3;;;7.4;;
51194;SDS011;37259;49.972;19.850;2023-08-17T01:45:31;12.3;;;7.4;;
51194;SDS011;37259;49.972;19.850;2023-08-17T01:46:32;12.3;;;7.4;;
51194;SDS011;37259;49.972;19.850;2023-08-17T01:47:31;12.3;;;7.4;;
51194;SDS011;37259;49.972;19.850;2023-08-17T01:48:31;12.3;;;7.4;;
51194;SDS011;37259;49.972;19.850;2023-08-17T01:49:31;12.3;;;7.4;;
51194;SDS011;37259;49.972;19.850;2023-08-17T01:50:31;12.3;;;7.4;;
51194;SDS011;37259;49.972;19.850;2023-08-17T01:51:31;12.3;;;7.4;;
51194;SDS011;37259;49.972;19.850;2023-08-17T01:52:31;12.3;;;7.4;;
51194;SDS011;37259;49.972;19.850;2023-08-17T01:53:31;12.3;;;7.4;;
51194;SDS011;37259;49.972;19.850;2023-08-17T01:54:31;10.1;;;7.7;;
51194;SDS011;37259;49.972;19.850;2023-08-17T01:55:31;10.1;;;7.7;;
51194;SDS011;37259;49.972;19.850;2023-08-17T01:56:31;10.1;;;7.7;;
51194;SDS011;37259;49.972;19.850;2023-08-17T01:57:31;10.1;;;7.7;;
51194;SDS011;37259;49.972;19.850;2023-08-17T01:58:31;10.1;;;7.7;;
51194;SDS011;37259;49.972;19.850;2023-08-17T01:59:31;10.1;;;7.7;;
51194;SDS011;37259;49.972;19.850;2023-08-17T02:00:31;10.1;;;7.7;;
51194;SDS011;37259;49.972;19.850;2023-08-17T02:01:31;10.1;;;7.7;;
51194;SDS011;37259;49.972;19.850;2023-08-17T02:02:31;10.1;;;7.7;;
51194;SDS011;37259;49.972;19.850;2023-08-17T02:03:31;10.1;;;7.7;;
51194;SDS011;37259;49.972;19.850;2023-08-17T02:04:31;10.1;;;7.7;;
51194;SDS011;37259;49.972;19.850;2023-08-17T02:05:31;10.1;;;7.7;;
51194;SDS011;37259;49.972;19.850;2023-08-17T02:06:31;10.1;;;7.7;;
51194;SDS011;37259;49.972;19.850;2023-08-17T02:07:31;10.1;;;7.7;;
51194;SDS011;37259;49.972;19.850;2023-08-17T02:08:32;10.1;;;7.7;;
51194;SDS011;37259;49.972;19.850;2023-08-17T02:09:31;10.1;;;7.7;;
51194;SDS011;37259;49.972;19.850;2023-08-17T02:10:31;10.1;;;7.7;;
51194;SDS011;37259;49.972;19.850;2023-08-17T02:11:31;10.1;;;7.7;;
51194;SDS011;37259;49.972;19.850;2023-08-17T02:12:31;10.1;;;7.7;;
51194;SDS011;37259;49.972;19.850;2023-08-17T02:13:31;10.1;;;7.7;;
51194;SDS011;37259;49.972;19.850;2023-08-17T02:14:31;10.1;;;7.7;;
51194;SDS011;37259;49.972;19.850;2023-08-17T02:15:31;10.1;;;7.7;;
51194;SDS011;37259;49.972;19.850;2023-08-17T02:16:31;10.1;;;7.7;;
51194;SDS011;37259;49.972;19.850;2023-08-17T02:17:31;10.1;;;7.7;;
51194;SDS011;37259;49.972;19.850;2023-08-17T02:18:31;10.1;;;7.7;;
51194;SDS011;37259;49.972;19.850;2023-08-17T02:19:31;10.1;;;7.7;;
51194;SDS011;37259;49.972;19.850;2023-08-17T02:20:31;10.1;;;7.7;;
51194;SDS011;37259;49.972;19.850;2023-08-17T02:21:31;10.1;;;7.7;;
51194;SDS011;37259;49.972;19.850;2023-08-17T02:22:31;10.1;;;7.7;;
51194;SDS011;37259;49.972;19.850;2023-08-17T02:23:31;10.1;;;7.7;;
51194;SDS011;37259;49.972;19.850;2023-08-17T02:24:31;10.1;;;7.3;;
51194;SDS011;37259;49.972;19.850;2023-08-17T02:25:31;10.1;;;7.3;;
51194;SDS011;37259;49.972;19.850;2023-08-17T02:26:31;10.1;;;7.3;;
51194;SDS011;37259;49.972;19.850;2023-08-17T02:27:31;10.1;;;7.3;;
51194;SDS011;37259;49.972;19.850;2023-08-17T02:28:31;10.1;;;7.3;;
51194;SDS011;37259;49.972;19.850;2023-08-17T02:29:31;10.1;;;7.3;;
51194;SDS011;37259;49.972;19.850;2023-08-17T02:30:31;10.1;;;7.3;;
51194;SDS011;37259;49.972;19.850;2023-08-17T02:31:31;10.1;;;7.3;;
51194;SDS011;37259;49.972;19.850;2023-08-17T02:32:31;10.1;;;7.3;;
51194;SDS011;37259;49.972;19.850;2023-08-17T02:33:31;10.1;;;7.3;;
51194;SDS011;37259;49.972;19.850;2023-08-17T02:34:31;10.1;;;7.3;;
51194;SDS011;37259;49.972;19.850;2023-08-17T02:35:31;10.1;;;7.3;;
51194;SDS011;37259;49.972;19.850;2023-08-17T02:36:31;10.1;;;7.3;;
51194;SDS011;37259;49.972;19.850;2023-08-17T02:37:31;10.1;;;7.3;;
51194;SDS011;37259;49.972;19.850;2023-08-17T02:38:31;10.1;;;7.3;;
51194;SDS011;37259;49.972;19.850;2023-08-17T02:39:31;10.1;;;7.3;;
51194;SDS011;37259;49.972;19.850;2023-08-17T02:40:31;10.1;;;7.3;;
51194;SDS011;37259;49.972;19.850;2023-08-17T02:41:31;10.1;;;7.3;;
51194;SDS011;37259;49.972;19.850;2023-08-17T02:42:31;10.1;;;7.3;;
51194;SDS011;37259;49.972;19.850;2023-08-17T02:43:31;10.1;;;7.3;;
51194;SDS011;37259;49.972;19.850;2023-08-17T02:44:31;10.1;;;7.3;;
51194;SDS011;37259;49.972;19.850;2023-08-17T02:45:31;10.1;;;7.3;;
51194;SDS011;37259;49.972;19.850;2023-08-17T02:46:31;10.1;;;7.3;;
51194;SDS011;37259;49.972;19.850;2023-08-17T02:47:31;10.1;;;7.3;;
51194;SDS011;37259;49.972;19.850;2023-08-17T02:48:31;10.1;;;7.3;;
51194;SDS011;37259;49.972;19.850;2023-08-17T02:49:31;10.1;;;7.3;;
51194;SDS011;37259;49.972;19.850;2023-08-17T02:50:31;10.1;;;7.3;;
51194;SDS011;37259;49.972;19.850;2023-08-17T02:51:31;10.1;;;7.3;;
51194;SDS011;37259;49.972;19.850;2023-08-17T02:52:31;10.1;;;7.3;;
51194;SDS011;37259;49.972;19.850;2023-08-17T02:53:31;10.1;;;7.3;;
51194;SDS011;37259;49.972;19.850;2023-08-17T02:54:31;12.3;;;7.2;;
51194;SDS011;37259;49.972;19.850;2023-08-17T02:55:31;12.3;;;7.2;;
51194;SDS011;37259;49.972;19.850;2023-08-17T02:56:31;12.3;;;7.2;;
51194;SDS011;37259;49.972;19.850;2023-08-17T02:57:31;12.3;;;7.2;;
51194;SDS011;37259;49.972;19.850;2023-08-17T02:58:31;12.3;;;7.2;;
51194;SDS011;37259;49.972;19.850;2023-08-17T02:59:31;12.3;;;7.2;;
51194;SDS011;37259;49.972;19.850;2023-08-17T03:00:32;12.3;;;7.2;;
51194;SDS011;37259;49.972;19.850;2023-08-17T03:01:31;12.3;;;7.2;;
51194;SDS011;37259;49.972;19.850;2023-08-17T03:02:31;12.3;;;7.2;;
51194;SDS011;37259;49.972;19.850;2023-08-17T03:03:31;12.3;;;7.2;;
51194;SDS011;37259;49.972;19.850;2023-08-17T03:04:31;12.3;;;7.2;;
51194;SDS011;37259;49.972;19.850;2023-08-17T03:05:31;12.3;;;7.2;;
51194;SDS011;37259;49.972;19.850;2023-08-17T03:06:31;12.3;;;7.2;;
51194;SDS011;37259;49.972;19.850;2023-08-17T03:07:31;12.3;;;7.2;;
51194;SDS011;37259;49.972;19.850;2023-08-17T03:08:31;12.3;;;7.2;;
51194;SDS011;37259;49.972;19.850;2023-08-17T03:09:31;12.3;;;7.2;;
51194;SDS011;37259;49.972;19.850;2023-08-17T03:10:31;12.3;;;7.2;;
51194;SDS011;37259;49.972;19.850;2023-08-17T03:11:31;12.3;;;7.2;;
51194;SDS011;37259;49.972;19.850;2023-08-17T03:12:31;12.3;;;7.2;;
51194;SDS011;37259;49.972;19.850;2023-08-17T03:13:31;12.3;;;7.2;;
51194;SDS011;37259;49.972;19.850;2023-08-17T03:14:31;12.3;;;7.2;;
51194;SDS011;37259;49.972;19.850;2023-08-17T03:15:31;12.3;;;7.2;;
51194;SDS011;37259;49.972;19.850;2023-08-17T03:16:31;12.3;;;7.2;;
51194;SDS011;37259;49.972;19.850;2023-08-17T03:17:31;12.3;;;7.2;;
51194;SDS011;37259;49.972;19.850;2023-08-17T03:18:31;12.3;;;7.2;;
51194;SDS011;37259;49.972;19.850;2023-08-17T03:19:31;12.3;;;7.2;;
51194;SDS011;37259;49.972;19.850;2023-08-17T03:20:31;12.3;;;7.2;;
51194;SDS011;37259;49.972;19.850;2023-08-17T03:21:31;12.3;;;7.2;;
51194;SDS011;37259;49.972;19.850;2023-08-17T03:22:31;12.3;;;7.2;;
51194;SDS011;37259;49.972;19.850;2023-08-17T03:23:32;12.3;;;7.2;;
51194;SDS011;37259;49.972;19.850;2023-08-17T03:24:31;13.4;;;8.2;;
51194;SDS011;37259;49.972;19.850;2023-08-17T03:25:31;13.4;;;8.2;;
51194;SDS011;37259;49.972;19.850;2023-08-17T03:26:31;13.4;;;8.2;;
51194;SDS011;37259;49.972;19.850;2023-08-17T03:27:31;13.4;;;8.2;;
51194;SDS011;37259;49.972;19.850;2023-08-17T03:28:31;13.4;;;8.2;;
51194;SDS011;37259;49.972;19.850;2023-08-17T03:29:31;13.4;;;8.2;;
51194;SDS011;37259;49.972;19.850;2023-08-17T03:30:31;13.4;;;8.2;;
51194;SDS011;37259;49.972;19.850;2023-08-17T03:31:31;13.4;;;8.2;;
51194;SDS011;37259;49.972;19.850;2023-08-17T03:32:34;13.4;;;8.2;;
51194;SDS011;37259;49.972;19.850;2023-08-17T03:33:32;13.4;;;8.2;;
51194;SDS011;37259;49.972;19.850;2023-08-17T03:34:32;13.4;;;8.2;;
51194;SDS011;37259;49.972;19.850;2023-08-17T03:35:32;13.4;;;8.2;;
51194;SDS011;37259;49.972;19.850;2023-08-17T03:36:32;13.4;;;8.2;;
51194;SDS011;37259;49.972;19.850;2023-08-17T03:37:32;13.4;;;8.2;;
51194;SDS011;37259;49.972;19.850;2023-08-17T03:38:32;13.4;;;8.2;;
51194;SDS011;37259;49.972;19.850;2023-08-17T03:39:32;13.4;;;8.2;;
51194;SDS011;37259;49.972;19.850;2023-08-17T03:40:32;13.4;;;8.2;;
51194;SDS011;37259;49.972;19.850;2023-08-17T03:41:32;13.4;;;8.2;;
51194;SDS011;37259;49.972;19.850;2023-08-17T03:42:32;13.4;;;8.2;;
51194;SDS011;37259;49.972;19.850;2023-08-17T03:43:32;13.4;;;8.2;;
51194;SDS011;37259;49.972;19.850;2023-08-17T03:44:32;13.4;;;8.2;;
51194;SDS011;37259;49.972;19.850;2023-08-17T03:45:32;13.4;;;8.2;;
51194;SDS011;37259;49.972;19.850;2023-08-17T03:46:32;13.4;;;8.2;;
51194;SDS011;37259;49.972;19.850;2023-08-17T03:47:32;13.4;;;8.2;;
51194;SDS011;37259;49.972;19.850;2023-08-17T03:48:32;13.4;;;8.2;;
51194;SDS011;37259;49.972;19.850;2023-08-17T03:49:32;13.4;;;8.2;;
51194;SDS011;37259;49.972;19.850;2023-08-17T03:50:32;13.4;;;8.2;;
51194;SDS011;37259;49.972;19.850;2023-08-17T03:51:32;13.4;;;8.2;;
51194;SDS011;37259;49.972;19.850;2023-08-17T03:52:32;13.4;;;8.2;;
51194;SDS011;37259;49.972;19.850;2023-08-17T03:53:32;13.4;;;8.2;;
51194;SDS011;37259;49.972;19.850;2023-08-17T03:54:32;13.2;;;9.3;;
51194;SDS011;37259;49.972;19.850;2023-08-17T03:55:32;13.2;;;9.3;;
51194;SDS011;37259;49.972;19.850;2023-08-17T03:56:32;13.2;;;9.3;;
51194;SDS011;37259;49.972;19.850;2023-08-17T03:57:32;13.2;;;9.3;;
51194;SDS011;37259;49.972;19.850;2023-08-17T03:58:32;13.2;;;9.3;;
51194;SDS011;37259;49.972;19.850;2023-08-17T03:59:32;13.2;;;9.3;;
51194;SDS011;37259;49.972;19.850;2023-08-17T04:00:32;13.2;;;9.3;;
51194;SDS011;37259;49.972;19.850;2023-08-17T04:01:32;13.2;;;9.3;;
51194;SDS011;37259;49.972;19.850;2023-08-17T04:02:32;13.2;;;9.3;;
51194;SDS011;37259;49.972;19.850;2023-08-17T04:03:32;13.2;;;9.3;;
51194;SDS011;37259;49.972;19.850;2023-08-17T04:04:32;13.2;;;9.3;;
51194;SDS011;37259;49.972;19.850;2023-08-17T04:05:32;13.2;;;9.3;;
51194;SDS011;37259;49.972;19.850;2023-08-17T04:06:32;13.2;;;9.3;;
51194;SDS011;37259;49.972;19.850;2023-08-17T04:07:32;13.2;;;9.3;;
51194;SDS011;37259;49.972;19.850;2023-08-17T04:08:32;13.2;;;9.3;;
51194;SDS011;37259;49.972;19.850;2023-08-17T04:09:32;13.2;;;9.3;;
51194;SDS011;37259;49.972;19.850;2023-08-17T04:10:32;13.2;;;9.3;;
51194;SDS011;37259;49.972;19.850;2023-08-17T04:11:34;13.2;;;9.3;;
51194;SDS011;37259;49.972;19.850;2023-08-17T04:12:32;13.2;;;9.3;;
51194;SDS011;37259;49.972;19.850;2023-08-17T04:13:32;13.2;;;9.3;;
51194;SDS011;37259;49.972;19.850;2023-08-17T04:14:32;13.2;;;9.3;;
51194;SDS011;37259;49.972;19.850;2023-08-17T04:15:32;13.2;;;9.3;;
51194;SDS011;37259;49.972;19.850;2023-08-17T04:16:32;13.2;;;9.3;;
51194;SDS011;37259;49.972;19.850;2023-08-17T04:17:32;13.2;;;9.3;;
51194;SDS011;37259;49.972;19.850;2023-08-17T04:18:32;13.2;;;9.3;;
51194;SDS011;37259;49.972;19.850;2023-08-17T04:19:32;13.2;;;9.3;;
51194;SDS011;37259;49.972;19.850;2023-08-17T04:20:32;13.2;;;9.3;;
51194;SDS011;37259;49.972;19.850;2023-08-17T04:21:32;13.2;;;9.3;;
51194;SDS011;37259;49.972;19.850;2023-08-17T04:22:32;13.2;;;9.3;;
51194;SDS011;37259;49.972;19.850;2023-08-17T04:23:32;13.2;;;9.3;;
51194;SDS011;37259;49.972;19.850;2023-08-17T04:24:32;13.2;;;9.6;;
51194;SDS011;37259;49.972;19.850;2023-08-17T04:25:32;13.2;;;9.6;;
51194;SDS011;37259;49.972;19.850;2023-08-17T04:26:32;13.2;;;9.6;;
51194;SDS011;37259;49.972;19.850;2023-08-17T04:27:32;13.2;;;9.6;;
51194;SDS011;37259;49.972;19.850;2023-08-17T04:28:32;13.2;;;9.6;;
51194;SDS011;37259;49.972;19.850;2023-08-17T04:29:32;13.2;;;9.6;;
51194;SDS011;37259;49.972;19.850;2023-08-17T04:30:32;13.2;;;9.6;;
51194;SDS011;37259;49.972;19.850;2023-08-17T04:31:32;13.2;;;9.6;;
51194;SDS011;37259;49.972;19.850;2023-08-17T04:32:32;13.2;;;9.6;;
51194;SDS011;37259;49.972;19.850;2023-08-17T04:33:32;13.2;;;9.6;;
51194;SDS011;37259;49.972;19.850;2023-08-17T04:34:32;13.2;;;9.6;;
51194;SDS011;37259;49.972;19.850;2023-08-17T04:35:32;13.2;;;9.6;;
51194;SDS011;37259;49.972;19.850;2023-08-17T04:36:32;13.2;;;9.6;;
51194;SDS011;37259;49.972;19.850;2023-08-17T04:37:32;13.2;;;9.6;;
51194;SDS011;37259;49.972;19.850;2023-08-17T04:38:32;13.2;;;9.6;;
51194;SDS011;37259;49.972;19.850;2023-08-17T04:39:32;13.2;;;9.6;;
51194;SDS011;37259;49.972;19.850;2023-08-17T04:40:32;13.2;;;9.6;;
51194;SDS011;37259;49.972;19.850;2023-08-17T04:41:32;13.2;;;9.6;;
51194;SDS011;37259;49.972;19.850;2023-08-17T04:42:32;13.2;;;9.6;;
51194;SDS011;37259;49.972;19.850;2023-08-17T04:43:32;13.2;;;9.6;;
51194;SDS011;37259;49.972;19.850;2023-08-17T04:44:32;13.2;;;9.6;;
51194;SDS011;37259;49.972;19.850;2023-08-17T04:45:32;13.2;;;9.6;;
51194;SDS011;37259;49.972;19.850;2023-08-17T04:46:32;13.2;;;9.6;;
51194;SDS011;37259;49.972;19.850;2023-08-17T04:47:32;13.2;;;9.6;;
51194;SDS011;37259;49.972;19.850;2023-08-17T04:48:32;13.2;;;9.6;;
51194;SDS011;37259;49.972;19.850;2023-08-17T04:49:32;13.2;;;9.6;;
51194;SDS011;37259;49.972;19.850;2023-08-17T04:50:32;13.2;;;9.6;;
51194;SDS011;37259;49.972;19.850;2023-08-17T04:51:32;13.2;;;9.6;;
51194;SDS011;37259;49.972;19.850;2023-08-17T04:52:32;13.2;;;9.6;;
51194;SDS011;37259;49.972;19.850;2023-08-17T04:53:32;13.2;;;9.6;;
51194;SDS011;37259;49.972;19.850;2023-08-17T04:54:32;16.5;;;9.7;;
51194;SDS011;37259;49.972;19.850;2023-08-17T04:55:32;16.5;;;9.7;;
51194;SDS011;37259;49.972;19.850;2023-08-17T04:56:32;16.5;;;9.7;;
51194;SDS011;37259;49.972;19.850;2023-08-17T04:57:32;16.5;;;9.7;;
51194;SDS011;37259;49.972;19.850;2023-08-17T04:58:32;16.5;;;9.7;;
51194;SDS011;37259;49.972;19.850;2023-08-17T04:59:32;16.5;;;9.7;;
51194;SDS011;37259;49.972;19.850;2023-08-17T05:00:32;16.5;;;9.7;;
51194;SDS011;37259;49.972;19.850;2023-08-17T05:01:32;16.5;;;9.7;;
51194;SDS011;37259;49.972;19.850;2023-08-17T05:02:32;16.5;;;9.7;;
51194;SDS011;37259;49.972;19.850;2023-08-17T05:03:32;16.5;;;9.7;;
51194;SDS011;37259;49.972;19.850;2023-08-17T05:04:32;16.5;;;9.7;;
51194;SDS011;37259;49.972;19.850;2023-08-17T05:05:32;16.5;;;9.7;;
51194;SDS011;37259;49.972;19.850;2023-08-17T05:06:32;16.5;;;9.7;;
51194;SDS011;37259;49.972;19.850;2023-08-17T05:07:32;16.5;;;9.7;;
51194;SDS011;37259;49.972;19.850;2023-08-17T05:08:32;16.5;;;9.7;;
51194;SDS011;37259;49.972;19.850;2023-08-17T05:09:32;16.5;;;9.7;;
51194;SDS011;37259;49.972;19.850;2023-08-17T05:10:32;16.5;;;9.7;;
51194;SDS011;37259;49.972;19.850;2023-08-17T05:11:32;16.5;;;9.7;;
51194;SDS011;37259;49.972;19.850;2023-08-17T05:12:32;16.5;;;9.7;;
51194;SDS011;37259;49.972;19.850;2023-08-17T05:13:32;16.5;;;9.7;;
51194;SDS011;37259;49.972;19.850;2023-08-17T05:14:32;16.5;;;9.7;;
51194;SDS011;37259;49.972;19.850;2023-08-17T05:15:32;16.5;;;9.7;;
51194;SDS011;37259;49.972;19.850;2023-08-17T05:16:32;16.5;;;9.7;;
51194;SDS011;37259;49.972;19.850;2023-08-17T05:17:32;16.5;;;9.7;;
51194;SDS011;37259;49.972;19.850;2023-08-17T05:18:32;16.5;;;9.7;;
51194;SDS011;37259;49.972;19.850;2023-08-17T05:19:32;16.5;;;9.7;;
51194;SDS011;37259;49.972;19.850;2023-08-17T05:20:32;16.5;;;9.7;;
51194;SDS011;37259;49.972;19.850;2023-08-17T05:21:32;16.5;;;9.7;;
51194;SDS011;37259;49.972;19.850;2023-08-17T05:22:32;16.5;;;9.7;;
51194;SDS011;37259;49.972;19.850;2023-08-17T05:23:32;16.5;;;9.7;;
51194;SDS011;37259;49.972;19.850;2023-08-17T05:24:32;12.2;;;9.1;;
51194;SDS011;37259;49.972;19.850;2023-08-17T05:25:32;12.2;;;9.1;;
51194;SDS011;37259;49.972;19.850;2023-08-17T05:26:32;12.2;;;9.1;;
51194;SDS011;37259;49.972;19.850;2023-08-17T05:27:32;12.2;;;9.1;;
51194;SDS011;37259;49.972;19.850;2023-08-17T05:28:32;12.2;;;9.1;;
51194;SDS011;37259;49.972;19.850;2023-08-17T05:29:32;12.2;;;9.1;;
51194;SDS011;37259;49.972;19.850;2023-08-17T05:30:32;12.2;;;9.1;;
51194;SDS011;37259;49.972;19.850;2023-08-17T05:31:32;12.2;;;9.1;;
51194;SDS011;37259;49.972;19.850;2023-08-17T05:32:32;12.2;;;9.1;;
51194;SDS011;37259;49.972;19.850;2023-08-17T05:33:32;12.2;;;9.1;;
51194;SDS011;37259;49.972;19.850;2023-08-17T05:34:32;12.2;;;9.1;;
51194;SDS011;37259;49.972;19.850;2023-08-17T05:35:32;12.2;;;9.1;;
51194;SDS011;37259;49.972;19.850;2023-08-17T05:36:32;12.2;;;9.1;;
51194;SDS011;37259;49.972;19.850;2023-08-17T05:37:32;12.2;;;9.1;;
51194;SDS011;37259;49.972;19.850;2023-08-17T05:38:32;12.2;;;9.1;;
51194;SDS011;37259;49.972;19.850;2023-08-17T05:39:32;12.2;;;9.1;;
51194;SDS011;37259;49.972;19.850;2023-08-17T05:40:32;12.2;;;9.1;;
51194;SDS011;37259;49.972;19.850;2023-08-17T05:41:32;12.2;;;9.1;;
51194;SDS011;37259;49.972;19.850;2023-08-17T05:42:32;12.2;;;9.1;;
51194;SDS011;37259;49.972;19.850;2023-08-17T05:43:32;12.2;;;9.1;;
51194;SDS011;37259;49.972;19.850;2023-08-17T05:44:32;12.2;;;9.1;;
51194;SDS011;37259;49.972;19.850;2023-08-17T05:45:32;12.2;;;9.1;;
51194;SDS011;37259;49.972;19.850;2023-08-17T05:46:32;12.2;;;9.1;;
51194;SDS011;37259;49.972;19.850;2023-08-17T05:47:32;12.2;;;9.1;;
51194;SDS011;37259;49.972;19.850;2023-08-17T05:48:32;12.2;;;9.1;;
51194;SDS011;37259;49.972;19.850;2023-08-17T05:49:32;12.2;;;9.1;;
51194;SDS011;37259;49.972;19.850;2023-08-17T05:50:32;12.2;;;9.1;;
51194;SDS011;37259;49.972;19.850;2023-08-17T05:51:32;12.2;;;9.1;;
51194;SDS011;37259;49.972;19.850;2023-08-17T05:52:32;12.2;;;9.1;;
51194;SDS011;37259;49.972;19.850;2023-08-17T05:53:32;12.2;;;9.1;;
51194;SDS011;37259;49.972;19.850;2023-08-17T05:54:32;12.2;;;9.2;;
51194;SDS011;37259;49.972;19.850;2023-08-17T05:55:32;12.2;;;9.2;;
51194;SDS011;37259;49.972;19.850;2023-08-17T05:56:32;12.2;;;9.2;;
51194;SDS011;37259;49.972;19.850;2023-08-17T05:57:32;12.2;;;9.2;;
51194;SDS011;37259;49.972;19.850;2023-08-17T05:58:32;12.2;;;9.2;;
51194;SDS011;37259;49.972;19.850;2023-08-17T05:59:32;12.2;;;9.2;;
51194;SDS011;37259;49.972;19.850;2023-08-17T06:00:32;12.2;;;9.2;;
51194;SDS011;37259;49.972;19.850;2023-08-17T06:01:32;12.2;;;9.2;;
51194;SDS011;37259;49.972;19.850;2023-08-17T06:02:32;12.2;;;9.2;;
51194;SDS011;37259;49.972;19.850;2023-08-17T06:03:32;12.2;;;9.2;;